Time;durP1;ratioP1;P1;durP2;ratioP2;P2;SDS_P1;SDS_P2;PMS_P1;PMS_P2;Temp;Humidity;BMP_temperature;BMP_pressure;BME280_temperature;BME280_humidity;BME280_pressure;Samples;Min_cycle;Max_cycle;Signal;HPM_P1;HPM_P2
2021/05/10 00:00:33;;;;;;;15.23;9.15;;;;;;;;;;349103;152;857107;-62
2021/05/10 00:01:34;;;;;;;16.01;10.11;;;;;;;;;;345367;151;856628;-62
2021/05/10 00:02:36;;;;;;;15.85;9.69;;;;;;;;;;347887;152;856206;-62
2021/05/10 00:03:37;;;;;;;18.01;9.96;;;;;;;;;;350473;152;856212;-62
2021/05/10 00:04:39;;;;;;;17.88;10.93;;;;;;;;;;350465;151;856817;-62
2021/05/10 00:05:40;;;;;;;20.24;11.14;;;;;;;;;;347420;155;856226;-62
2021/05/10 00:06:42;;;;;;;17.46;10.67;;;;;;;;;;349101;152;856609;-62
2021/05/10 00:07:43;;;;;;;16.19;10.56;;;;;;;;;;348703;151;856886;-62
2021/05/10 00:08:47;;;;;;;16.13;10.46;;;;;;;;;;353581;152;856310;-61
2021/05/10 00:09:49;;;;;;;15.69;10.10;;;;;;;;;;349485;151;861836;-62
2021/05/10 00:10:50;;;;;;;16.91;9.82;;;;;;;;;;348205;152;856165;-61
2021/05/10 00:11:52;;;;;;;15.21;10.29;;;;;;;;;;353067;151;856168;-62
2021/05/10 00:12:53;;;;;;;19.87;11.35;;;;;;;;;;346628;152;864544;-62
2021/05/10 00:13:55;;;;;;;18.78;10.56;;;;;;;;;;341991;155;863946;-62
2021/05/10 00:14:57;;;;;;;18.01;10.51;;;;;;;;;;352991;152;857224;-61
2021/05/10 00:15:58;;;;;;;23.93;11.22;;;;;;;;;;352221;149;856184;-62
2021/05/10 00:17:00;;;;;;;16.00;10.10;;;;;;;;;;350856;152;864134;-62
2021/05/10 00:18:03;;;;;;;14.95;10.11;;;;;;;;;;350372;149;856909;-62
2021/05/10 00:19:04;;;;;;;15.26;10.11;;;;;;;;;;353124;152;856178;-62
2021/05/10 00:20:07;;;;;;;16.51;9.43;;;;;;;;;;349817;152;864586;-62
2021/05/10 00:21:08;;;;;;;14.03;9.27;;;;;;;;;;353103;149;856717;-62
2021/05/10 00:22:10;;;;;;;16.38;10.79;;;;;;;;;;346844;155;856891;-62
2021/05/10 00:23:12;;;;;;;15.46;10.51;;;;;;;;;;349294;152;856586;-62
2021/05/10 00:24:13;;;;;;;14.99;9.66;;;;;;;;;;351282;149;856458;-61
2021/05/10 00:25:15;;;;;;;18.74;10.82;;;;;;;;;;346858;155;863998;-62
2021/05/10 00:26:17;;;;;;;24.89;10.83;;;;;;;;;;350928;151;857480;-62
2021/05/10 00:27:18;;;;;;;17.98;10.64;;;;;;;;;;352760;151;856615;-62
2021/05/10 00:28:20;;;;;;;20.41;11.35;;;;;;;;;;347148;152;862176;-62
2021/05/10 00:29:22;;;;;;;24.75;11.06;;;;;;;;;;347710;151;864071;-62
2021/05/10 00:30:25;;;;;;;15.27;10.70;;;;;;;;;;348017;152;863751;-61
2021/05/10 00:31:26;;;;;;;15.73;10.73;;;;;;;;;;350660;151;856140;-61
2021/05/10 00:34:19;;;;;;;17.97;10.35;;;;;;;5.23;60.01;100760.69;370762;141;881770;-61
2021/05/10 00:35:21;;;;;;;19.61;11.03;;;;;;;5.17;60.00;100762.20;364538;147;857206;-60
2021/05/10 00:36:24;;;;;;;21.20;11.20;;;;;;;5.23;59.91;100770.95;364692;147;856473;-61
2021/05/10 00:37:25;;;;;;;15.50;10.41;;;;;;;5.26;59.84;100762.45;363591;145;856337;-61
2021/05/10 00:38:27;;;;;;;19.78;11.83;;;;;;;5.24;59.49;100767.56;364107;146;863933;-61
2021/05/10 00:39:29;;;;;;;19.21;11.30;;;;;;;5.21;59.36;100764.02;365037;145;856056;-61
2021/05/10 00:40:33;;;;;;;17.27;10.73;;;;;;;5.20;59.36;100767.42;363787;145;863577;-61
2021/05/10 00:41:35;;;;;;;19.02;10.97;;;;;;;5.18;59.38;100766.51;363244;147;863967;-61
2021/05/10 00:42:37;;;;;;;16.51;11.10;;;;;;;5.17;59.64;100769.91;364382;145;856386;-61
2021/05/10 00:43:39;;;;;;;16.19;10.09;;;;;;;5.15;59.79;100764.74;359524;150;856594;-61
2021/05/10 00:44:41;;;;;;;18.44;11.33;;;;;;;5.15;59.94;100762.18;362808;146;856817;-61
2021/05/10 00:45:43;;;;;;;16.04;9.91;;;;;;;5.16;60.14;100766.48;365420;145;863946;-62
2021/05/10 00:46:45;;;;;;;16.84;10.95;;;;;;;5.17;60.24;100767.34;366145;147;864318;-62
2021/05/10 00:47:46;;;;;;;20.97;10.96;;;;;;;5.19;60.26;100771.70;359823;147;856670;-61
2021/05/10 00:48:48;;;;;;;16.97;10.96;;;;;;;5.19;60.85;100766.56;356928;147;864764;-62
2021/05/10 00:49:50;;;;;;;28.28;11.41;;;;;;;5.21;61.41;100777.75;365967;147;863801;-62
2021/05/10 00:50:52;;;;;;;18.53;11.78;;;;;;;5.22;61.41;100774.35;364704;145;863648;-62
2021/05/10 00:51:53;;;;;;;18.41;10.31;;;;;;;5.22;61.57;100774.35;363919;147;856088;-62
2021/05/10 00:52:55;;;;;;;18.79;10.91;;;;;;;5.20;61.46;100775.13;359735;149;863841;-62
2021/05/10 00:53:57;;;;;;;18.59;10.67;;;;;;;5.18;61.62;100777.66;358297;148;863848;-62
2021/05/10 00:54:59;;;;;;;20.36;10.54;;;;;;;5.18;61.62;100777.66;358422;150;863817;-62
2021/05/10 00:56:00;;;;;;;19.44;10.78;;;;;;;5.14;61.48;100774.95;358802;148;864724;-62
2021/05/10 00:57:02;;;;;;;17.26;10.53;;;;;;;5.11;61.32;100771.48;359252;148;863814;-62
2021/05/10 00:58:04;;;;;;;18.02;10.77;;;;;;;5.10;61.21;100772.30;357714;148;856353;-62
2021/05/10 00:59:06;;;;;;;18.32;10.59;;;;;;;5.11;61.23;100773.19;352750;151;856489;-62
2021/05/10 01:00:10;;;;;;;15.51;10.35;;;;;;;5.15;61.22;100774.12;352271;150;856282;-62
2021/05/10 01:01:11;;;;;;;18.00;10.90;;;;;;;5.18;60.71;100771.64;359180;148;856484;-62
2021/05/10 01:02:13;;;;;;;16.69;9.91;;;;;;;5.12;60.02;100772.36;361303;148;856204;-62
2021/05/10 01:03:15;;;;;;;14.56;10.04;;;;;;;5.07;59.99;100779.06;359008;148;864020;-62
2021/05/10 01:04:17;;;;;;;18.53;10.08;;;;;;;5.06;59.87;100775.61;360081;148;863830;-62
2021/05/10 01:05:18;;;;;;;19.41;10.76;;;;;;;;;;355664;149;856811;-62
2021/05/10 01:06:22;;;;;;;18.40;10.39;;;;;;;;;;357500;149;864624;-62
2021/05/10 01:07:23;;;;;;;16.20;11.47;;;;;;;;;;358487;148;856135;-62
2021/05/10 01:08:25;;;;;;;16.49;11.30;;;;;;;;;;359351;148;863931;-62
2021/05/10 01:09:26;;;;;;;19.65;13.54;;;;;;;;;;359065;148;865028;-62
2021/05/10 01:10:29;;;;;;;18.00;11.92;;;;;;;;;;360106;148;863668;-62
2021/05/10 01:11:31;;;;;;;19.48;12.06;;;;;;;;;;361773;148;856709;-62
2021/05/10 01:14:17;;;;;;;19.44;12.32;;;;;;;4.47;60.94;100790.98;373749;141;881664;-61
2021/05/10 01:15:20;;;;;;;23.63;12.05;;;;;;;4.41;61.18;100790.80;365446;145;857193;-62
2021/05/10 01:16:22;;;;;;;20.06;12.06;;;;;;;4.46;61.25;100797.83;365777;146;856130;-61
2021/05/10 01:17:24;;;;;;;19.79;12.47;;;;;;;4.47;60.93;100794.44;365955;145;856174;-61
2021/05/10 01:18:25;;;;;;;20.28;12.29;;;;;;;4.46;60.85;100795.27;364301;145;856691;-61
2021/05/10 01:19:27;;;;;;;22.04;12.54;;;;;;;4.47;61.15;100793.55;364358;147;864299;-62
2021/05/10 01:20:29;;;;;;;19.37;12.25;;;;;;;4.50;61.28;100797.09;359263;148;863673;-62
2021/05/10 01:21:31;;;;;;;18.38;11.77;;;;;;;4.57;61.34;100790.44;360066;147;856187;-61
2021/05/10 01:22:41;;;;;;;18.76;11.83;;;;;;;4.63;61.50;100794.91;363459;146;856470;-61
2021/05/10 01:23:44;;;;;;;20.77;12.53;;;;;;;4.70;61.63;100793.37;363824;145;863665;-62
2021/05/10 01:24:46;;;;;;;19.49;12.48;;;;;;;4.76;61.33;100793.55;366087;147;857056;-62
2021/05/10 01:25:50;;;;;;;19.68;12.55;;;;;;;4.79;61.09;100796.25;364340;146;856519;-62
2021/05/10 01:26:53;;;;;;;23.54;12.58;;;;;;;4.75;60.67;100796.95;363692;146;857004;-61
2021/05/10 01:27:55;;;;;;;20.99;12.62;;;;;;;4.71;61.04;100796.00;364277;146;863733;-62
2021/05/10 01:28:57;;;;;;;19.85;11.96;;;;;;;4.71;61.02;100796.00;366356;145;864105;-61
2021/05/10 01:29:59;;;;;;;19.83;12.82;;;;;;;4.72;60.89;100794.29;364645;147;856449;-61
2021/05/10 01:31:00;;;;;;;20.56;13.26;;;;;;;4.71;60.57;100806.27;361504;145;863625;-61
2021/05/10 01:32:02;;;;;;;19.72;12.66;;;;;;;4.70;60.34;100799.39;362092;145;864035;-62
2021/05/10 01:33:05;;;;;;;21.86;12.71;;;;;;;4.72;60.86;100756.70;358700;150;863824;-62
2021/05/10 01:34:07;;;;;;;23.09;12.51;;;;;;;4.72;60.86;100756.70;359517;148;856280;-62
2021/05/10 01:35:09;;;;;;;25.41;13.15;;;;;;;4.71;60.97;100807.94;359287;149;864020;-62
2021/05/10 01:36:12;;;;;;;22.27;12.68;;;;;;;4.73;61.20;100801.16;359058;149;864030;-61
2021/05/10 01:37:14;;;;;;;21.61;13.45;;;;;;;4.77;61.22;100805.56;358903;149;856463;-61
2021/05/10 01:38:16;;;;;;;19.44;12.49;;;;;;;4.80;61.13;100801.41;358164;149;863688;-61
2021/05/10 01:39:18;;;;;;;22.75;14.10;;;;;;;4.80;60.86;100801.41;359851;148;864039;-61
2021/05/10 01:40:21;;;;;;;23.20;13.56;;;;;;;4.84;61.14;100804.95;359140;150;856883;-61
2021/05/10 01:41:23;;;;;;;23.57;14.18;;;;;;;4.83;61.15;100798.92;356043;149;857980;-61
2021/05/10 01:42:25;;;;;;;21.06;12.24;;;;;;;4.78;60.93;100802.20;357072;148;856123;-61
2021/05/10 01:43:27;;;;;;;21.63;13.16;;;;;;;4.75;60.74;100797.83;358493;150;863668;-61
2021/05/10 01:44:28;;;;;;;18.33;12.11;;;;;;;4.73;60.50;100809.75;358570;148;863615;-61
2021/05/10 01:45:30;;;;;;;20.05;12.82;;;;;;;4.72;60.14;100808.00;356021;148;863845;-61
2021/05/10 01:46:32;;;;;;;21.14;12.92;;;;;;;4.70;59.89;100808.77;355313;150;863906;-61
2021/05/10 01:47:34;;;;;;;21.48;13.36;;;;;;;4.69;59.55;100818.17;358376;148;856660;-61
2021/05/10 01:48:36;;;;;;;21.17;12.82;;;;;;;4.64;59.56;100815.45;357631;148;863674;-61
2021/05/10 01:49:38;;;;;;;23.31;13.21;;;;;;;4.57;59.22;100816.09;358498;149;856437;-61
2021/05/10 01:50:41;;;;;;;22.09;13.76;;;;;;;4.47;59.52;100814.95;357798;148;864508;-61
2021/05/10 01:51:43;;;;;;;22.11;13.38;;;;;;;4.39;59.64;100812.14;359157;149;856147;-61
2021/05/10 01:52:46;;;;;;;23.11;13.03;;;;;;;4.35;60.22;100824.83;358664;148;856394;-61
2021/05/10 01:53:47;;;;;;;24.64;13.31;;;;;;;4.28;60.56;100813.50;358682;149;856237;-61
2021/05/10 01:54:53;;;;;;;23.59;14.44;;;;;;;4.25;61.06;100821.09;360394;149;857092;-61
2021/05/10 01:55:54;;;;;;;21.42;13.56;;;;;;;4.21;61.29;100820.10;356633;148;863657;-61
2021/05/10 01:56:56;;;;;;;24.37;14.09;;;;;;;4.20;61.45;100822.64;358988;149;856838;-61
2021/05/10 01:57:59;;;;;;;25.71;13.47;;;;;;;4.22;61.66;100821.84;357359;148;856060;-61
2021/05/10 01:59:00;;;;;;;21.55;13.63;;;;;;;4.27;61.69;100819.45;357821;149;856620;-61
2021/05/10 02:00:06;;;;;;;23.90;14.77;;;;;;;4.30;61.67;100814.41;359186;149;856265;-61
2021/05/10 02:01:08;;;;;;;24.62;13.52;;;;;;;4.30;61.36;100818.69;357974;148;857723;-61
2021/05/10 02:02:10;;;;;;;20.77;13.24;;;;;;;4.26;61.51;100816.84;359399;150;857501;-61
2021/05/10 02:03:16;;;;;;;19.54;12.98;;;;;;;4.26;61.89;100820.27;359050;149;856347;-61
2021/05/10 02:04:18;;;;;;;23.68;13.21;;;;;;;4.29;62.17;100812.67;357719;149;863823;-61
2021/05/10 02:05:20;;;;;;;21.18;13.34;;;;;;;4.37;62.10;100811.22;357551;150;857236;-61
2021/05/10 02:06:22;;;;;;;22.24;13.62;;;;;;;4.44;61.98;100816.54;358489;148;856088;-61
2021/05/10 02:07:24;;;;;;;23.76;14.24;;;;;;;4.47;61.95;100814.06;354500;150;856276;-61
2021/05/10 02:08:28;;;;;;;20.51;13.49;;;;;;;4.50;61.71;100817.62;357926;149;863617;-62
2021/05/10 02:09:29;;;;;;;25.32;13.39;;;;;;;4.50;61.55;100815.05;358185;148;864163;-61
2021/05/10 02:10:36;;;;;;;21.94;13.51;;;;;;;4.51;61.46;100821.03;358591;147;864243;-61
2021/05/10 02:11:38;;;;;;;21.26;13.47;;;;;;;4.50;61.42;100819.30;358900;149;856181;-61
2021/05/10 02:12:40;;;;;;;25.99;14.85;;;;;;;4.46;61.37;100818.34;357652;147;856679;-62
2021/05/10 02:13:42;;;;;;;24.40;13.59;;;;;;;4.41;61.33;100819.89;357853;150;856183;-61
2021/05/10 02:14:44;;;;;;;22.39;13.68;;;;;;;4.37;61.47;100821.48;355336;148;856119;-62
2021/05/10 02:15:50;;;;;;;22.61;13.85;;;;;;;4.33;61.37;100824.77;354133;148;863667;-61
2021/05/10 02:16:51;;;;;;;19.81;12.94;;;;;;;4.29;61.47;100828.06;353372;149;856180;-62
2021/05/10 02:17:53;;;;;;;21.88;13.04;;;;;;;4.27;61.48;100826.28;355032;148;856378;-62
2021/05/10 02:18:57;;;;;;;25.84;13.99;;;;;;;4.21;61.52;100829.50;352973;151;856235;-62
2021/05/10 02:19:59;;;;;;;21.89;12.89;;;;;;;4.22;61.55;100831.25;356623;149;863887;-61
2021/05/10 02:21:01;;;;;;;23.37;13.46;;;;;;;4.19;61.49;100832.00;355114;151;863955;-61
2021/05/10 02:22:03;;;;;;;21.47;13.96;;;;;;;4.17;61.61;100827.66;356732;151;856474;-62
2021/05/10 02:23:10;;;;;;;24.28;13.40;;;;;;;4.15;61.71;100832.72;352273;150;856263;-62
2021/05/10 02:24:12;;;;;;;27.38;14.53;;;;;;;4.11;61.94;100833.45;353671;151;863928;-61
2021/05/10 02:25:19;;;;;;;26.68;13.82;;;;;;;4.13;61.95;100836.08;357233;149;856774;-61
2021/05/10 02:26:21;;;;;;;25.44;14.18;;;;;;;4.13;61.91;100831.80;356592;148;856529;-62
2021/05/10 02:27:22;;;;;;;25.61;14.13;;;;;;;4.14;61.84;100836.11;353366;151;856458;-62
2021/05/10 02:28:26;;;;;;;23.43;13.63;;;;;;;4.16;61.73;100834.47;356323;149;856497;-62
2021/05/10 02:29:27;;;;;;;21.91;13.79;;;;;;;4.15;61.37;100832.72;356529;151;856320;-62
2021/05/10 02:30:30;;;;;;;23.09;14.21;;;;;;;4.11;61.16;100825.75;356407;149;856661;-62
2021/05/10 02:31:32;;;;;;;23.45;13.41;;;;;;;4.05;61.19;100833.25;356471;150;856270;-62
2021/05/10 02:32:34;;;;;;;24.51;14.16;;;;;;;4.02;61.42;100828.91;356639;151;856306;-62
2021/05/10 02:33:36;;;;;;;20.83;13.64;;;;;;;4.01;61.39;100837.41;356234;149;863638;-62
2021/05/10 02:34:37;;;;;;;23.28;14.88;;;;;;;4.02;61.63;100834.03;356145;148;863783;-62
2021/05/10 02:35:39;;;;;;;24.67;15.63;;;;;;;4.07;61.65;100842.74;349402;152;857124;-62
2021/05/10 02:36:42;;;;;;;21.94;13.76;;;;;;;;;;348062;153;856823;-61
2021/05/10 02:37:43;;;;;;;25.75;15.34;;;;;;;;;;348792;152;856543;-62
2021/05/10 02:38:45;;;;;;;24.28;14.50;;;;;;;;;;342047;155;856127;-62
2021/05/10 02:39:47;;;;;;;26.64;14.20;;;;;;;;;;344543;156;856681;-62
2021/05/10 02:40:48;;;;;;;23.63;13.78;;;;;;;;;;343473;153;856345;-61
2021/05/10 02:41:50;;;;;;;25.57;14.12;;;;;;;;;;343923;155;856875;-62
2021/05/10 02:42:52;;;;;;;21.91;13.91;;;;;;;;;;345782;155;856562;-62
2021/05/10 02:43:53;;;;;;;20.31;13.19;;;;;;;;;;343195;155;863685;-62
2021/05/10 02:44:55;;;;;;;22.40;13.94;;;;;;;;;;343862;156;856260;-62
2021/05/10 02:45:56;;;;;;;18.71;12.66;;;;;;;;;;344728;156;857451;-62
2021/05/10 02:46:58;;;;;;;20.91;13.36;;;;;;;;;;343004;154;856936;-62
2021/05/10 02:48:00;;;;;;;23.39;14.71;;;;;;;;;;344654;153;863856;-62
2021/05/10 02:49:01;;;;;;;25.37;14.28;;;;;;;;;;348432;151;864677;-62
2021/05/10 02:50:05;;;;;;;27.96;14.60;;;;;;;;;;348168;151;856344;-62
2021/05/10 02:51:06;;;;;;;23.36;13.79;;;;;;;;;;347777;152;864833;-61
2021/05/10 02:52:08;;;;;;;24.02;14.32;;;;;;;;;;348457;152;858158;-62
2021/05/10 02:53:10;;;;;;;24.18;14.83;;;;;;;;;;348474;153;864505;-62
2021/05/10 02:54:11;;;;;;;25.15;14.39;;;;;;;;;;348635;154;863981;-62
2021/05/10 02:55:13;;;;;;;25.39;14.26;;;;;;;;;;348055;152;859041;-62
2021/05/10 02:56:15;;;;;;;24.14;14.21;;;;;;;;;;349850;152;856312;-62
2021/05/10 02:57:16;;;;;;;24.11;13.64;;;;;;;;;;347713;154;856075;-62
2021/05/10 02:58:18;;;;;;;24.30;13.61;;;;;;;;;;347554;152;856301;-62
2021/05/10 02:59:20;;;;;;;24.60;14.12;;;;;;;;;;346860;151;857576;-62
2021/05/10 03:00:22;;;;;;;23.71;14.20;;;;;;;;;;347413;151;856304;-62
2021/05/10 03:01:24;;;;;;;25.03;15.29;;;;;;;;;;347792;151;856435;-62
2021/05/10 03:02:26;;;;;;;22.14;13.57;;;;;;;;;;345751;154;863914;-62
2021/05/10 03:03:27;;;;;;;23.96;14.19;;;;;;;;;;347246;152;858824;-62
2021/05/10 03:04:29;;;;;;;24.64;15.83;;;;;;;;;;348315;153;856279;-62
2021/05/10 03:05:30;;;;;;;21.60;13.89;;;;;;;;;;346668;151;856333;-62
2021/05/10 03:06:34;;;;;;;26.36;14.03;;;;;;;;;;348528;151;856692;-62
2021/05/10 03:07:35;;;;;;;26.39;14.54;;;;;;;;;;346279;154;856814;-62
2021/05/10 03:08:37;;;;;;;25.99;14.91;;;;;;;;;;340234;156;863783;-62
2021/05/10 03:09:38;;;;;;;25.85;14.30;;;;;;;;;;349077;152;863884;-62
2021/05/10 03:10:41;;;;;;;28.77;15.55;;;;;;;;;;342352;155;856499;-62
2021/05/10 03:11:43;;;;;;;25.49;15.56;;;;;;;;;;342072;154;856337;-62
2021/05/10 03:12:44;;;;;;;27.52;15.06;;;;;;;;;;344156;154;856245;-62
2021/05/10 03:13:46;;;;;;;25.96;15.21;;;;;;;;;;344054;155;856764;-61
2021/05/10 03:34:37;;;;;;;27.78;15.48;;;;;;;5.10;63.85;100854.45;372914;141;883364;-59
2021/05/10 03:35:39;;;;;;;33.19;17.69;;;;;;;5.06;63.78;100857.75;365798;146;857251;-59
2021/05/10 03:36:43;;;;;;;35.52;19.31;;;;;;;5.11;63.68;100861.33;364187;147;856068;-59
2021/05/10 03:37:45;;;;;;;34.92;19.71;;;;;;;5.22;63.50;100865.90;362084;146;862294;-60
2021/05/10 03:38:46;;;;;;;33.69;18.35;;;;;;;5.31;63.25;100865.30;363515;147;856073;-66
2021/05/10 03:39:50;;;;;;;33.04;19.72;;;;;;;5.38;63.05;100864.65;363686;146;856399;-63
2021/05/10 03:40:52;;;;;;;38.34;19.13;;;;;;;5.45;63.03;100869.12;362875;146;863838;-64
2021/05/10 03:41:54;;;;;;;32.45;19.27;;;;;;;5.51;63.25;100871.87;366032;147;856669;-60
2021/05/10 03:42:57;;;;;;;31.51;17.78;;;;;;;5.61;63.37;100872.12;364776;147;856370;-61
2021/05/10 03:43:59;;;;;;;37.14;18.29;;;;;;;5.70;63.53;100870.69;362694;146;864051;-60
2021/05/10 03:45:00;;;;;;;31.55;18.61;;;;;;;5.81;63.30;100875.23;365385;147;856629;-61
2021/05/10 03:46:02;;;;;;;31.09;17.71;;;;;;;5.90;63.19;100875.48;363459;146;863986;-61
2021/05/10 03:47:04;;;;;;;27.51;16.69;;;;;;;5.98;63.24;100873.12;362538;146;863767;-61
2021/05/10 03:48:06;;;;;;;29.23;17.80;;;;;;;6.04;63.22;100870.73;361206;147;864076;-58
2021/05/10 03:49:08;;;;;;;28.29;17.85;;;;;;;6.10;63.17;100870.01;365041;146;864244;-61
2021/05/10 03:50:20;;;;;;;31.74;18.33;;;;;;;6.10;63.17;100870.01;363855;147;856219;-60
2021/05/10 03:51:22;;;;;;;35.18;18.99;;;;;;;6.22;63.36;100874.61;363143;147;856573;-60
2021/05/10 03:52:23;;;;;;;28.90;18.65;;;;;;;6.32;63.41;100876.57;357340;149;856228;-60
2021/05/10 03:53:25;;;;;;;29.10;17.59;;;;;;;6.41;63.56;100881.08;357533;150;856730;-61
2021/05/10 03:54:27;;;;;;;28.89;16.91;;;;;;;6.48;63.46;100880.39;356768;149;863984;-61
2021/05/10 03:55:29;;;;;;;29.72;18.06;;;;;;;6.54;63.37;100887.38;355449;147;856165;-57
2021/05/10 03:56:31;;;;;;;33.63;19.16;;;;;;;6.58;63.31;100878.89;357865;149;856319;-61
2021/05/10 03:57:33;;;;;;;37.37;21.20;;;;;;;6.62;63.42;100878.13;359006;149;856953;-60
2021/05/10 03:58:35;;;;;;;38.20;20.71;;;;;;;6.67;62.98;100878.25;357015;150;864344;-59
2021/05/10 03:59:36;;;;;;;36.18;20.70;;;;;;;6.74;62.74;100882.70;357755;149;863791;-58
2021/05/10 04:00:39;;;;;;;34.01;20.91;;;;;;;6.74;62.74;100882.70;355105;149;863723;-62
2021/05/10 04:01:41;;;;;;;35.22;20.86;;;;;;;6.90;62.42;100881.36;357605;150;856199;-58
2021/05/10 04:02:44;;;;;;;37.32;20.64;;;;;;;7.00;62.10;100883.30;356958;149;863640;-59
2021/05/10 04:03:52;;;;;;;36.89;21.29;;;;;;;7.08;61.92;100886.02;356008;150;856680;-59
2021/05/10 04:04:58;;;;;;;38.49;21.24;;;;;;;7.15;61.68;100882.73;356249;149;856209;-59
2021/05/10 04:06:19;;;;;;;38.66;20.76;;;;;;;7.24;61.52;100888.92;357100;149;864206;-58
2021/05/10 04:08:49;;;;;;;36.92;20.49;;;;;;;7.44;60.41;100887.65;358349;149;856641;-59
2021/05/10 04:11:25;;;;;;;37.81;21.27;;;;;;;7.71;59.92;100889.02;356740;149;857455;-59
2021/05/10 04:14:36;;;;;;;37.22;19.37;;;;;;;8.05;60.29;100896.52;357801;149;856062;-59
2021/05/10 04:15:38;;;;;;;31.78;19.22;;;;;;;8.14;60.19;100890.63;357003;150;856090;-60
2021/05/10 04:16:40;;;;;;;34.59;19.99;;;;;;;8.22;60.08;100889.05;356601;149;856264;-59
2021/05/10 04:17:42;;;;;;;38.17;20.63;;;;;;;8.30;58.69;100887.47;356972;150;856196;-60
2021/05/10 04:18:44;;;;;;;36.41;20.24;;;;;;;8.36;58.33;100896.16;356848;150;856079;-59
2021/05/10 04:19:46;;;;;;;35.85;20.49;;;;;;;8.41;58.01;100890.23;358589;149;863839;-60
2021/05/10 04:20:48;;;;;;;34.56;20.24;;;;;;;8.49;57.34;100890.41;356682;149;863348;-59
2021/05/10 04:21:50;;;;;;;34.71;19.85;;;;;;;8.54;57.37;100896.52;356273;149;864019;-60
2021/05/10 04:22:52;;;;;;;35.84;19.30;;;;;;;8.61;57.21;100898.34;356033;150;863348;-59
2021/05/10 04:23:54;;;;;;;37.19;19.91;;;;;;;8.68;57.03;100898.44;358232;149;864372;-57
2021/05/10 04:24:55;;;;;;;35.85;20.80;;;;;;;8.73;57.02;100894.20;359041;149;863404;-58
2021/05/10 04:25:57;;;;;;;30.80;18.78;;;;;;;8.83;57.28;100896.08;359616;149;863648;-59
2021/05/10 04:27:01;;;;;;;31.87;18.86;;;;;;;8.91;57.35;100891.89;357086;149;863738;-59
2021/05/10 04:28:03;;;;;;;36.61;19.21;;;;;;;8.99;57.23;100896.29;357601;150;856165;-59
2021/05/10 04:29:05;;;;;;;31.56;19.20;;;;;;;9.05;57.70;100902.42;358726;150;863866;-59
2021/05/10 04:30:08;;;;;;;31.21;19.12;;;;;;;9.12;57.62;100890.44;358471;149;856319;-59
2021/05/10 04:31:10;;;;;;;32.87;19.44;;;;;;;9.20;57.52;100896.58;355314;150;856286;-60
2021/05/10 04:32:11;;;;;;;30.88;18.19;;;;;;;9.28;57.64;100890.64;358535;150;856732;-59
2021/05/10 04:33:13;;;;;;;32.16;18.61;;;;;;;9.35;57.82;100901.09;357634;149;864088;-65
2021/05/10 04:34:15;;;;;;;32.07;18.59;;;;;;;9.41;57.75;100897.69;354552;149;864505;-60
2021/05/10 04:35:18;;;;;;;36.58;18.58;;;;;;;9.50;57.74;100902.97;355971;150;856685;-60
2021/05/10 04:36:22;;;;;;;29.13;18.12;;;;;;;9.57;57.70;100897.91;356261;150;863476;-59
2021/05/10 04:37:24;;;;;;;32.28;18.09;;;;;;;9.66;57.57;100903.17;356677;151;856137;-59
2021/05/10 04:38:26;;;;;;;33.36;17.99;;;;;;;9.71;57.38;100898.92;354386;150;856566;-59
2021/05/10 04:39:27;;;;;;;31.21;18.17;;;;;;;9.80;57.20;100895.55;355901;150;864079;-58
2021/05/10 04:40:29;;;;;;;28.85;16.55;;;;;;;9.88;56.67;100900.81;354834;151;856679;-60
2021/05/10 04:41:31;;;;;;;27.04;16.58;;;;;;;9.96;56.51;100899.17;354076;150;856301;-58
2021/05/10 04:42:33;;;;;;;23.68;15.08;;;;;;;10.03;56.29;100895.80;355002;150;864531;-59
2021/05/10 04:43:34;;;;;;;27.99;15.26;;;;;;;10.12;56.06;100904.50;355957;150;863928;-59
2021/05/10 04:44:36;;;;;;;26.76;14.35;;;;;;;10.20;55.68;100908.91;356443;150;863808;-59
2021/05/10 04:45:38;;;;;;;16.77;10.17;;;;;;;10.27;55.36;100907.22;352132;150;864169;-61
2021/05/10 04:46:40;;;;;;;22.95;11.09;;;;;;;10.32;53.79;100905.53;352183;151;856151;-63
2021/05/10 04:47:42;;;;;;;21.03;12.03;;;;;;;10.38;53.32;100908.17;355470;150;856344;-59
2021/05/10 04:48:44;;;;;;;19.70;12.17;;;;;;;10.46;54.09;100910.88;350244;151;856632;-60
2021/05/10 04:49:46;;;;;;;17.43;10.00;;;;;;;10.52;54.18;100912.63;355732;150;857188;-59
2021/05/10 04:50:48;;;;;;;17.84;9.75;;;;;;;10.60;53.43;100917.88;352201;150;864259;-59
2021/05/10 04:51:49;;;;;;;16.79;10.13;;;;;;;10.65;52.71;100913.60;348250;154;864285;-58
2021/05/10 04:52:51;;;;;;;15.64;8.51;;;;;;;10.71;52.82;100918.83;348373;152;863888;-59
2021/05/10 04:53:53;;;;;;;11.68;7.15;;;;;;;10.77;52.07;100913.69;353293;152;863847;-60
2021/05/10 04:54:55;;;;;;;16.39;8.56;;;;;;;10.77;52.07;100913.69;354415;149;864063;-58
2021/05/10 04:55:57;;;;;;;15.64;7.52;;;;;;;10.87;51.25;100917.22;354292;150;863855;-59
2021/05/10 04:56:59;;;;;;;13.32;7.33;;;;;;;10.93;51.39;100911.19;356451;151;863882;-59
2021/05/10 04:58:00;;;;;;;12.02;6.91;;;;;;;10.99;51.35;100918.15;356266;150;856542;-59
2021/05/10 04:59:02;;;;;;;9.29;5.29;;;;;;;;;;353927;150;864782;-59
2021/05/10 05:00:05;;;;;;;6.37;4.29;;;;;;;;;;353034;151;863905;-58
2021/05/10 05:01:06;;;;;;;9.19;4.49;;;;;;;;;;352986;150;856414;-59
2021/05/10 05:02:08;;;;;;;7.85;4.16;;;;;;;;;;354347;150;856276;-58
2021/05/10 05:03:09;;;;;;;6.11;4.29;;;;;;;;;;354490;151;864492;-59
2021/05/10 05:04:11;;;;;;;6.63;4.26;;;;;;;;;;355933;150;856969;-58
2021/05/10 05:05:12;;;;;;;6.35;4.23;;;;;;;;;;354065;151;856553;-58
2021/05/10 05:06:14;;;;;;;9.31;4.51;;;;;;;;;;355155;150;863940;-57
2021/05/10 05:07:16;;;;;;;7.33;4.69;;;;;;;;;;356032;150;856418;-59
2021/05/10 05:08:18;;;;;;;7.52;4.31;;;;;;;;;;354219;151;863718;-59
2021/05/10 05:09:19;;;;;;;6.22;4.17;;;;;;;;;;353166;150;856195;-59
2021/05/10 05:10:21;;;;;;;5.99;3.28;;;;;;;;;;356652;151;863735;-58
2021/05/10 05:11:23;;;;;;;5.75;3.54;;;;;;;;;;351905;151;856156;-59
2021/05/10 05:12:25;;;;;;;4.87;3.11;;;;;;;;;;353652;150;863740;-58
2021/05/10 05:13:27;;;;;;;5.67;3.34;;;;;;;;;;350680;153;856593;-58
2021/05/10 05:14:28;;;;;;;6.69;4.07;;;;;;;;;;356455;150;863883;-58
2021/05/10 05:15:30;;;;;;;6.91;3.44;;;;;;;;;;354110;151;856340;-58
2021/05/10 05:16:32;;;;;;;7.15;3.74;;;;;;;;;;350420;151;856371;-58
2021/05/10 05:17:37;;;;;;;7.68;3.28;;;;;;;;;;356555;150;856216;-58
2021/05/10 05:18:38;;;;;;;6.67;3.06;;;;;;;;;;352902;151;857820;-58
2021/05/10 05:19:40;;;;;;;4.80;3.08;;;;;;;;;;351335;150;863661;-59
2021/05/10 05:20:42;;;;;;;6.30;2.81;;;;;;;;;;355914;150;863719;-59
2021/05/10 05:21:43;;;;;;;3.81;2.71;;;;;;;;;;352061;150;863646;-59
2021/05/10 05:22:45;;;;;;;7.25;3.38;;;;;;;;;;355771;150;863714;-59
2021/05/10 05:23:46;;;;;;;5.21;3.30;;;;;;;;;;352984;150;856868;-58
2021/05/10 05:24:48;;;;;;;5.82;2.94;;;;;;;;;;353861;150;863695;-59
2021/05/10 05:25:53;;;;;;;4.70;2.94;;;;;;;;;;354548;150;856235;-58
2021/05/10 05:26:55;;;;;;;4.36;3.11;;;;;;;;;;356163;151;863857;-59
2021/05/10 05:27:57;;;;;;;6.24;3.17;;;;;;;;;;352607;150;856310;-59
2021/05/10 05:28:58;;;;;;;3.69;2.21;;;;;;;;;;352858;150;863890;-58
2021/05/10 05:30:00;;;;;;;5.24;2.41;;;;;;;;;;350677;150;856130;-58
2021/05/10 05:31:02;;;;;;;2.89;2.21;;;;;;;;;;354696;150;857350;-59
2021/05/10 05:32:04;;;;;;;4.09;2.47;;;;;;;;;;352011;151;856419;-60
2021/05/10 05:33:05;;;;;;;3.67;2.59;;;;;;;;;;351040;150;856822;-59
2021/05/10 05:34:07;;;;;;;6.40;3.13;;;;;;;;;;354267;150;856381;-58
2021/05/10 05:35:09;;;;;;;5.57;3.00;;;;;;;;;;353820;150;857047;-59
2021/05/10 05:36:10;;;;;;;6.73;3.10;;;;;;;;;;354425;150;856584;-59